Terminal Aerodrome Forecast
Issued by NWS

Home | Current Version | Previous Version | Text Only | Print | Product List | Glossary On
Versions: 1 2 3 4 5 6 7 8 9 10 11 12 13 14 15
238
FTPA31 PHFO 101143
TAFHKO
TAF
PHKO 101143Z 1012/1112 05005KT P6SM VCSH SCT025 OVC120
     FM102100 24008KT P6SM SCT025 OVC050
     FM110500 05005KT P6SM SCT015 SCT050=

USA.gov is the U.S. government's official web portal to all federal, state and local government web resources and services.